Time;durP1;ratioP1;P1;durP2;ratioP2;P2;SDS_P1;SDS_P2;PMS_P1;PMS_P2;Temp;Humidity;BMP_temperature;BMP_pressure;BME280_temperature;BME280_humidity;BME280_pressure;Samples;Min_cycle;Max_cycle;Signal;HPM_P1;HPM_P2
2023/05/06 00:02:07;;;;;;;63.97;18.77;;;11.00;99.90;;;;;;5076416;28;20874;-62
2023/05/06 00:04:35;;;;;;;25.07;17.13;;;10.90;99.90;;;;;;5077037;28;20464;-61
2023/05/06 00:07:03;;;;;;;21.03;16.93;;;10.90;99.90;;;;;;5076434;28;20497;-62
2023/05/06 00:09:30;;;;;;;49.27;18.27;;;11.00;99.90;;;;;;5075888;28;20540;-62
2023/05/06 00:11:57;;;;;;;38.73;16.80;;;11.00;99.90;;;;;;5076304;28;20838;-62
2023/05/06 00:14:24;;;;;;;18.87;16.83;;;11.00;99.90;;;;;;5077376;28;20493;-62
2023/05/06 00:16:52;;;;;;;40.67;17.90;;;10.90;99.90;;;;;;5077911;28;20559;-62
2023/05/06 00:19:19;;;;;;;17.00;15.20;;;10.90;99.90;;;;;;5077973;28;20467;-62
2023/05/06 00:21:48;;;;;;;55.10;17.73;;;10.90;99.90;;;;;;5077808;28;20472;-62
2023/05/06 00:24:15;;;;;;;54.77;17.90;;;10.90;99.90;;;;;;5077555;28;20772;-62
2023/05/06 00:26:42;;;;;;;58.67;19.20;;;10.80;99.90;;;;;;5078177;28;20442;-62
2023/05/06 00:29:09;;;;;;;87.70;19.37;;;10.80;99.90;;;;;;5077790;28;20461;-62
2023/05/06 00:31:36;;;;;;;20.90;16.53;;;10.70;99.90;;;;;;5077451;28;20559;-62
2023/05/06 00:34:04;;;;;;;56.50;19.53;;;10.70;99.90;;;;;;5077662;28;20565;-62
2023/05/06 00:36:31;;;;;;;22.40;17.80;;;10.70;99.90;;;;;;5077687;28;20468;-61
2023/05/06 00:39:00;;;;;;;20.63;18.40;;;10.70;99.90;;;;;;5077638;28;20901;-62
2023/05/06 00:41:31;;;;;;;25.63;18.20;;;10.80;99.90;;;;;;5077693;28;20803;-62
2023/05/06 00:43:58;;;;;;;29.60;19.43;;;10.80;99.90;;;;;;5077193;28;20468;-62
2023/05/06 00:46:26;;;;;;;25.40;19.13;;;10.80;99.90;;;;;;5077501;28;20563;-62
2023/05/06 00:48:54;;;;;;;27.83;19.80;;;10.90;99.90;;;;;;5077804;28;20807;-62
2023/05/06 00:51:22;;;;;;;36.17;21.43;;;10.90;99.90;;;;;;5077583;28;20544;-62
2023/05/06 00:53:50;;;;;;;33.50;22.23;;;10.90;99.90;;;;;;5077232;28;20822;-62
2023/05/06 00:56:19;;;;;;;29.90;21.53;;;10.90;99.90;;;;;;5077257;28;20747;-62
2023/05/06 00:58:46;;;;;;;26.33;21.30;;;11.00;99.90;;;;;;5077223;28;20461;-62
2023/05/06 01:01:13;;;;;;;31.40;22.10;;;10.90;99.90;;;;;;5077153;28;20464;-62
2023/05/06 01:03:40;;;;;;;36.37;19.60;;;10.80;99.90;;;;;;5077314;28;20489;-62
2023/05/06 01:06:19;;;;;;;25.40;18.17;;;10.80;99.90;;;;;;5077159;28;20461;-62
2023/05/06 01:08:57;;;;;;;20.97;18.03;;;10.80;99.90;;;;;;5077104;28;20755;-62
2023/05/06 01:11:34;;;;;;;30.13;19.87;;;10.80;99.90;;;;;;5077342;28;20482;-62
2023/05/06 01:14:08;;;;;;;22.20;18.47;;;10.80;99.90;;;;;;5076919;28;20878;-62
2023/05/06 01:16:40;;;;;;;27.00;20.33;;;10.80;99.90;;;;;;5077083;28;20460;-62
2023/05/06 01:19:12;;;;;;;26.60;19.70;;;10.80;99.90;;;;;;5077126;28;20457;-62
2023/05/06 01:21:41;;;;;;;30.53;22.17;;;10.80;99.90;;;;;;5077180;28;20603;-62
2023/05/06 01:24:10;;;;;;;40.50;19.63;;;10.80;99.90;;;;;;5097087;28;20934;-62
2023/05/06 01:26:37;;;;;;;28.20;17.60;;;10.80;99.90;;;;;;5097326;28;20460;-62
2023/05/06 01:29:04;;;;;;;36.27;19.80;;;10.80;99.90;;;;;;5097217;28;20492;-62
2023/05/06 01:31:39;;;;;;;41.13;18.73;;;10.80;99.90;;;;;;5097017;28;20575;-62
2023/05/06 01:34:14;;;;;;;48.90;18.90;;;10.70;99.90;;;;;;5096854;28;20492;-62
2023/05/06 01:36:49;;;;;;;35.33;18.53;;;10.70;99.90;;;;;;5097038;28;20466;-62
2023/05/06 01:39:24;;;;;;;58.50;18.63;;;10.70;99.90;;;;;;5097492;28;20869;-62
2023/05/06 01:41:53;;;;;;;24.83;18.10;;;10.60;99.90;;;;;;5096682;28;20468;-62
2023/05/06 01:44:23;;;;;;;30.33;17.30;;;10.50;99.90;;;;;;5096157;28;20509;-62
2023/05/06 01:46:51;;;;;;;43.20;18.70;;;10.50;99.90;;;;;;5096877;28;20529;-62
2023/05/06 01:49:20;;;;;;;22.60;17.93;;;10.50;99.90;;;;;;5097252;28;20531;-62
2023/05/06 01:51:48;;;;;;;23.23;18.20;;;10.50;99.90;;;;;;5096533;28;20464;-62
2023/05/06 01:54:15;;;;;;;22.80;17.00;;;10.60;99.90;;;;;;5096938;28;20464;-62
2023/05/06 01:56:44;;;;;;;25.93;17.70;;;10.60;99.90;;;;;;5079095;28;20560;-62
2023/05/06 01:59:11;;;;;;;19.30;17.10;;;10.60;99.90;;;;;;5076656;28;20503;-62
2023/05/06 02:01:38;;;;;;;30.00;17.23;;;10.60;99.90;;;;;;5076528;28;20473;-62
2023/05/06 02:04:05;;;;;;;25.03;18.87;;;10.60;99.90;;;;;;5076398;28;20468;-62
2023/05/06 02:06:33;;;;;;;29.10;17.30;;;10.60;99.90;;;;;;5076484;28;20468;-61
2023/05/06 02:09:00;;;;;;;38.10;19.63;;;10.60;99.90;;;;;;5076626;28;20490;-62
2023/05/06 02:11:27;;;;;;;34.83;20.17;;;10.60;99.90;;;;;;5076735;28;20504;-62
2023/05/06 02:13:57;;;;;;;66.50;20.50;;;10.50;99.90;;;;;;5076405;28;20465;-62
2023/05/06 02:16:27;;;;;;;25.80;19.27;;;10.50;99.90;;;;;;5076306;28;20461;-62
2023/05/06 02:18:54;;;;;;;29.90;18.27;;;10.60;99.90;;;;;;5076520;28;20432;-61
2023/05/06 02:21:22;;;;;;;23.47;17.00;;;10.60;99.90;;;;;;5076589;28;20436;-61
2023/05/06 02:23:50;;;;;;;23.57;17.97;;;10.60;99.90;;;;;;5076410;28;20435;-62
2023/05/06 02:26:17;;;;;;;40.37;19.17;;;10.60;99.90;;;;;;5079478;28;20465;-61
2023/05/06 02:28:44;;;;;;;28.77;19.13;;;10.60;99.90;;;;;;5080108;28;20579;-61
2023/05/06 02:31:15;;;;;;;63.57;20.63;;;10.60;99.90;;;;;;5092336;28;20553;-62
2023/05/06 02:33:42;;;;;;;25.60;18.50;;;10.60;99.90;;;;;;5099768;28;20461;-62
2023/05/06 02:36:10;;;;;;;28.53;18.23;;;10.60;99.90;;;;;;5100113;28;20464;-62
2023/05/06 02:38:37;;;;;;;43.80;19.30;;;10.60;99.90;;;;;;5100054;28;20431;-62
2023/05/06 02:41:04;;;;;;;32.90;18.10;;;10.60;99.90;;;;;;5100201;28;20896;-62
2023/05/06 02:43:31;;;;;;;33.50;18.00;;;10.60;99.90;;;;;;5099742;28;20498;-62
2023/05/06 02:45:58;;;;;;;51.67;19.67;;;10.60;99.90;;;;;;5099949;28;20537;-62
2023/05/06 02:48:27;;;;;;;22.13;17.23;;;10.60;99.90;;;;;;5099974;28;20467;-62
2023/05/06 02:50:54;;;;;;;31.90;17.57;;;10.50;99.90;;;;;;5100166;28;20559;-62
2023/05/06 02:53:21;;;;;;;63.93;19.33;;;10.50;99.90;;;;;;5100239;28;20832;-62
2023/05/06 02:55:48;;;;;;;241.27;27.80;;;10.50;99.90;;;;;;5099669;28;20902;-62
2023/05/06 02:58:15;;;;;;;48.40;18.07;;;10.40;99.90;;;;;;5099521;28;20936;-62
2023/05/06 03:00:43;;;;;;;49.97;16.93;;;10.40;99.90;;;;;;5100051;28;20760;-62
2023/05/06 03:03:10;;;;;;;69.33;17.20;;;10.30;99.90;;;;;;5099176;28;20930;-62
2023/05/06 03:05:39;;;;;;;23.80;16.60;;;10.30;99.90;;;;;;5099231;28;20473;-62
2023/05/06 03:08:06;;;;;;;75.40;18.80;;;10.30;99.90;;;;;;5099197;28;20484;-62
2023/05/06 03:10:33;;;;;;;20.50;14.83;;;10.20;99.90;;;;;;5099373;28;20446;-62
2023/05/06 03:13:01;;;;;;;25.60;15.23;;;10.20;99.90;;;;;;5099482;28;20460;-62
2023/05/06 03:15:28;;;;;;;57.60;18.03;;;10.30;99.90;;;;;;5099505;28;20508;-62
2023/05/06 03:17:55;;;;;;;25.60;14.67;;;10.30;99.90;;;;;;5098767;28;20534;-62
2023/05/06 03:20:22;;;;;;;62.87;18.60;;;10.30;99.90;;;;;;5092331;28;20459;-62
2023/05/06 03:22:51;;;;;;;152.90;22.00;;;10.30;99.90;;;;;;5092913;28;20461;-62
2023/05/06 03:25:18;;;;;;;38.43;16.97;;;10.10;99.90;;;;;;5094553;28;20952;-62
2023/05/06 03:27:45;;;;;;;82.07;17.10;;;10.10;99.90;;;;;;5098597;28;20467;-62
2023/05/06 03:30:13;;;;;;;25.33;14.10;;;10.10;99.90;;;;;;5098791;28;20944;-62
2023/05/06 03:32:40;;;;;;;59.33;16.27;;;10.10;99.90;;;;;;5099000;28;20533;-62
2023/05/06 03:35:10;;;;;;;53.80;16.07;;;10.20;99.90;;;;;;5098733;28;20559;-62
2023/05/06 03:37:37;;;;;;;17.00;13.70;;;10.10;99.90;;;;;;5098347;28;20460;-62
2023/05/06 03:40:07;;;;;;;40.13;16.67;;;10.10;99.90;;;;;;5098859;28;20723;-62
2023/05/06 03:42:34;;;;;;;19.47;14.50;;;10.10;99.90;;;;;;5090863;28;20737;-62
2023/05/06 03:45:02;;;;;;;31.77;16.57;;;10.10;99.90;;;;;;5099135;28;20560;-62
2023/05/06 03:47:29;;;;;;;65.30;15.10;;;10.00;99.90;;;;;;5099193;28;20456;-62
2023/05/06 03:49:56;;;;;;;28.00;12.00;;;10.00;99.90;;;;;;5098574;28;20952;-62
2023/05/06 03:52:23;;;;;;;28.43;12.53;;;9.90;99.90;;;;;;5098535;28;20464;-62
2023/05/06 03:54:51;;;;;;;95.53;16.10;;;9.90;99.90;;;;;;5098744;28;20461;-62
2023/05/06 03:57:19;;;;;;;59.17;14.87;;;9.90;99.90;;;;;;5098649;28;20499;-62
2023/05/06 03:59:46;;;;;;;25.97;13.17;;;9.80;99.90;;;;;;5097983;28;20431;-62
2023/05/06 04:02:14;;;;;;;31.53;12.90;;;9.80;99.90;;;;;;5098529;28;20551;-62
2023/05/06 04:04:42;;;;;;;51.30;13.87;;;9.80;99.90;;;;;;5098057;28;20464;-62
2023/05/06 04:07:09;;;;;;;35.93;13.93;;;9.70;99.90;;;;;;5098784;28;20467;-62
2023/05/06 04:09:36;;;;;;;47.77;14.60;;;9.80;99.90;;;;;;5097868;28;20513;-62
2023/05/06 04:12:03;;;;;;;21.70;13.83;;;9.80;99.90;;;;;;5098163;28;20557;-62
2023/05/06 04:14:32;;;;;;;20.70;13.20;;;9.80;99.90;;;;;;5098329;28;20772;-62
2023/05/06 04:16:59;;;;;;;20.73;12.80;;;9.80;99.90;;;;;;5098565;28;20933;-62
2023/05/06 04:19:26;;;;;;;55.13;16.43;;;9.90;99.90;;;;;;5098342;28;20547;-62
2023/05/06 04:21:54;;;;;;;47.63;14.10;;;9.90;99.90;;;;;;5098022;28;20881;-62
2023/05/06 04:24:21;;;;;;;14.73;13.10;;;9.90;99.90;;;;;;5097265;28;20427;-62
2023/05/06 04:26:48;;;;;;;24.30;13.93;;;9.90;99.90;;;;;;5092708;28;20460;-62
2023/05/06 04:29:16;;;;;;;16.57;13.33;;;9.90;99.90;;;;;;5096035;28;20485;-62
2023/05/06 04:31:45;;;;;;;22.23;13.40;;;9.90;99.90;;;;;;5096060;28;20484;-62
2023/05/06 04:34:12;;;;;;;49.10;15.67;;;9.90;99.90;;;;;;5096421;28;20807;-62
2023/05/06 04:36:39;;;;;;;55.57;15.50;;;9.90;99.90;;;;;;5096568;28;20948;-62
2023/05/06 04:39:07;;;;;;;16.93;13.93;;;9.90;99.90;;;;;;5096078;28;20562;-62
2023/05/06 04:41:34;;;;;;;16.87;13.43;;;9.90;99.90;;;;;;5095641;28;20464;-62
2023/05/06 04:44:02;;;;;;;18.43;12.57;;;9.80;99.90;;;;;;5096089;28;20460;-62
2023/05/06 04:46:29;;;;;;;15.80;12.30;;;9.90;99.90;;;;;;5096057;28;20496;-62
2023/05/06 04:48:58;;;;;;;30.53;12.10;;;9.90;99.90;;;;;;5095399;28;20823;-62
2023/05/06 04:51:25;;;;;;;25.30;13.07;;;9.90;99.90;;;;;;5095897;28;20443;-62
2023/05/06 04:53:52;;;;;;;46.97;13.27;;;9.90;99.90;;;;;;5095778;28;20517;-62
2023/05/06 04:56:20;;;;;;;57.03;12.93;;;9.80;99.90;;;;;;5096394;28;20965;-62
2023/05/06 04:58:47;;;;;;;34.40;12.20;;;9.80;99.90;;;;;;5111281;28;20460;-62
2023/05/06 05:01:14;;;;;;;12.47;10.80;;;9.70;99.90;;;;;;5117806;28;20860;-62
2023/05/06 05:03:41;;;;;;;22.37;11.40;;;9.80;99.90;;;;;;5108451;28;20457;-62
2023/05/06 05:06:12;;;;;;;26.30;12.60;;;9.80;99.90;;;;;;5093339;28;20579;-62
2023/05/06 05:08:39;;;;;;;42.23;13.70;;;9.90;99.90;;;;;;5097113;28;20492;-62
2023/05/06 05:11:06;;;;;;;19.87;12.30;;;9.80;99.90;;;;;;5097341;28;20470;-62
2023/05/06 05:13:34;;;;;;;48.23;12.57;;;9.80;99.90;;;;;;5095858;28;20466;-62
2023/05/06 05:16:01;;;;;;;22.80;12.70;;;9.90;99.90;;;;;;5096848;28;20488;-62
2023/05/06 05:18:29;;;;;;;17.80;12.23;;;9.70;99.90;;;;;;5096982;28;20542;-62
2023/05/06 05:20:57;;;;;;;12.60;10.93;;;9.90;99.90;;;;;;5097349;28;20822;-62
2023/05/06 05:23:25;;;;;;;19.27;11.40;;;10.10;99.90;;;;;;5096139;28;20543;-62
2023/05/06 05:25:52;;;;;;;16.53;11.73;;;10.10;99.90;;;;;;5095099;28;20464;-62
2023/05/06 05:28:20;;;;;;;14.13;11.20;;;10.30;99.90;;;;;;5095119;28;20463;-62
2023/05/06 05:30:47;;;;;;;13.17;11.77;;;10.40;99.90;;;;;;5094944;28;20480;-62
2023/05/06 05:33:14;;;;;;;13.43;10.57;;;10.40;99.90;;;;;;5095701;28;20551;-62
2023/05/06 05:35:41;;;;;;;15.60;11.80;;;10.40;99.90;;;;;;5094884;28;20478;-62
2023/05/06 05:38:08;;;;;;;13.70;12.30;;;10.50;99.90;;;;;;5095337;28;20772;-62
2023/05/06 05:40:37;;;;;;;17.93;12.80;;;10.60;99.90;;;;;;5097013;28;20503;-62
2023/05/06 05:43:04;;;;;;;14.70;13.20;;;10.70;99.90;;;;;;5096310;28;20435;-62
2023/05/06 05:45:32;;;;;;;14.93;13.30;;;10.80;99.90;;;;;;5096983;28;20552;-62
2023/05/06 05:47:59;;;;;;;15.50;13.10;;;11.00;99.90;;;;;;5096993;28;20505;-62
2023/05/06 05:50:26;;;;;;;14.63;12.87;;;11.10;99.90;;;;;;5096928;28;20587;-62
2023/05/06 05:52:53;;;;;;;13.50;12.07;;;11.30;99.90;;;;;;5097681;28;20765;-63
2023/05/06 05:55:21;;;;;;;16.77;13.00;;;11.50;99.90;;;;;;5096596;28;20831;-62
2023/05/06 05:57:49;;;;;;;14.50;11.80;;;11.50;99.90;;;;;;5096500;28;20439;-62
2023/05/06 06:00:17;;;;;;;16.93;12.97;;;11.70;99.90;;;;;;5100754;28;20435;-62
2023/05/06 06:02:45;;;;;;;15.30;12.17;;;11.80;99.90;;;;;;5100786;28;20499;-62
2023/05/06 06:05:12;;;;;;;12.47;10.97;;;11.90;99.90;;;;;;5101123;28;20464;-62
2023/05/06 06:07:39;;;;;;;10.83;9.80;;;12.00;99.90;;;;;;5100656;28;20477;-62
2023/05/06 06:10:07;;;;;;;12.67;11.37;;;11.90;99.90;;;;;;5100522;28;20778;-62
2023/05/06 06:12:35;;;;;;;12.33;11.07;;;11.80;99.90;;;;;;5100659;28;20737;-63
2023/05/06 06:15:04;;;;;;;11.40;9.43;;;11.80;99.90;;;;;;5100652;28;20460;-63
2023/05/06 06:17:31;;;;;;;11.17;10.03;;;12.00;99.90;;;;;;5100140;28;20559;-63
2023/05/06 06:20:00;;;;;;;11.03;9.90;;;12.40;99.90;;;;;;5100399;28;20431;-63
2023/05/06 06:22:27;;;;;;;12.20;11.00;;;12.60;99.90;;;;;;5100874;28;20916;-63
2023/05/06 06:24:54;;;;;;;13.47;10.27;;;13.00;99.90;;;;;;5100566;28;20463;-64
2023/05/06 06:27:21;;;;;;;11.20;10.10;;;13.20;99.90;;;;;;5100344;28;20466;-64
2023/05/06 06:29:48;;;;;;;10.20;9.20;;;13.20;99.90;;;;;;5099547;28;20470;-64
2023/05/06 06:32:18;;;;;;;10.67;9.67;;;13.50;99.90;;;;;;5100475;28;20460;-64
2023/05/06 06:34:45;;;;;;;10.90;9.80;;;13.70;99.90;;;;;;5100268;28;20954;-64
2023/05/06 06:37:12;;;;;;;10.83;9.67;;;14.00;99.90;;;;;;5099568;28;20464;-64
2023/05/06 06:39:40;;;;;;;9.97;9.07;;;14.00;99.90;;;;;;5099563;28;20548;-65
2023/05/06 06:42:07;;;;;;;10.73;9.73;;;14.20;99.90;;;;;;5099822;28;20591;-65
2023/05/06 06:44:34;;;;;;;9.50;8.70;;;14.00;99.90;;;;;;5100369;28;20979;-65
2023/05/06 06:47:01;;;;;;;10.50;9.60;;;14.10;99.90;;;;;;5100190;28;20456;-65
2023/05/06 06:49:31;;;;;;;10.37;9.37;;;14.50;99.90;;;;;;5100014;28;20545;-65
2023/05/06 06:51:58;;;;;;;9.30;8.50;;;14.80;99.90;;;;;;5100107;28;20722;-65
2023/05/06 06:54:25;;;;;;;9.80;8.80;;;14.90;99.90;;;;;;5099764;28;20443;-65
2023/05/06 06:56:54;;;;;;;9.73;8.90;;;14.70;99.90;;;;;;5100101;28;20463;-65
2023/05/06 06:59:22;;;;;;;9.93;8.93;;;15.30;99.90;;;;;;5099687;28;20431;-65
2023/05/06 07:01:49;;;;;;;10.73;9.37;;;15.70;99.90;;;;;;5098819;28;20463;-65
2023/05/06 07:04:16;;;;;;;11.20;8.83;;;16.00;99.90;;;;;;5098356;28;20884;-65
2023/05/06 07:06:45;;;;;;;10.17;9.17;;;16.10;99.90;;;;;;5098613;28;20448;-65
2023/05/06 07:09:12;;;;;;;10.20;9.23;;;16.50;99.90;;;;;;5098451;28;20491;-65
2023/05/06 07:11:39;;;;;;;11.37;8.63;;;16.70;99.90;;;;;;5094590;28;20453;-64
2023/05/06 07:14:07;;;;;;;13.87;9.40;;;16.90;99.90;;;;;;5098962;28;20496;-64
2023/05/06 07:16:34;;;;;;;9.30;8.30;;;17.10;1.00;;;;;;5099740;28;20750;-64
2023/05/06 07:19:01;;;;;;;8.57;7.77;;;17.00;1.00;;;;;;5099427;28;20920;-64
2023/05/06 07:21:31;;;;;;;9.30;8.10;;;17.40;1.00;;;;;;5099512;28;20829;-64
2023/05/06 07:23:59;;;;;;;9.53;8.30;;;17.80;1.00;;;;;;5098195;28;20463;-63
2023/05/06 07:26:27;;;;;;;8.50;7.80;;;17.90;1.00;;;;;;5094985;28;20452;-64
2023/05/06 07:28:54;;;;;;;8.83;8.00;;;18.00;1.00;;;;;;5097861;28;20456;-64
2023/05/06 07:31:21;;;;;;;7.40;6.70;;;18.10;1.00;;;;;;5096718;28;20573;-64
2023/05/06 07:33:48;;;;;;;8.33;7.60;;;18.30;1.00;;;;;;5095194;28;20485;-63
2023/05/06 07:36:16;;;;;;;8.67;7.90;;;18.50;1.00;;;;;;5098474;28;20539;-64
2023/05/06 07:38:43;;;;;;;9.10;7.10;;;18.80;1.00;;;;;;5099403;28;20547;-63
2023/05/06 07:41:11;;;;;;;8.37;7.40;;;19.10;1.00;;;;;;5098759;28;20559;-64
2023/05/06 07:43:39;;;;;;;8.57;7.77;;;19.40;1.00;;;;;;5098661;28;20471;-64
2023/05/06 07:46:06;;;;;;;7.93;7.23;;;19.20;1.00;;;;;;5098431;28;20419;-63
2023/05/06 07:48:36;;;;;;;8.00;7.20;;;19.30;1.00;;;;;;5098598;28;20934;-63
2023/05/06 07:51:03;;;;;;;6.67;5.80;;;19.70;1.00;;;;;;5098791;28;20949;-63
2023/05/06 07:53:31;;;;;;;6.80;6.20;;;20.10;1.00;;;;;;5098605;28;20435;-64
2023/05/06 07:56:02;;;;;;;7.17;6.23;;;20.30;99.90;;;;;;5098852;28;20464;-64
2023/05/06 07:58:34;;;;;;;6.47;5.90;;;20.40;1.00;;;;;;5098504;28;20893;-63
2023/05/06 08:01:02;;;;;;;6.27;5.67;;;20.60;99.90;;;;;;5098574;28;20517;-63
2023/05/06 08:03:29;;;;;;;5.67;4.87;;;20.70;99.90;;;;;;5098220;28;20460;-63
2023/05/06 08:05:57;;;;;;;5.23;4.73;;;20.90;99.90;;;;;;5098108;28;20468;-63
2023/05/06 08:08:26;;;;;;;5.27;4.80;;;20.90;99.90;;;;;;5098570;28;20837;-63
2023/05/06 08:10:54;;;;;;;4.97;4.50;;;21.00;99.90;;;;;;5098338;28;20493;-63
2023/05/06 08:13:22;;;;;;;4.80;4.40;;;21.40;99.90;;;;;;5098605;28;20457;-63
2023/05/06 08:15:51;;;;;;;4.63;4.23;;;21.60;99.90;;;;;;5097879;28;20488;-63
2023/05/06 08:18:18;;;;;;;4.00;3.57;;;21.90;99.90;;;;;;5098218;28;20464;-63
2023/05/06 08:20:45;;;;;;;3.70;3.20;;;22.20;99.90;;;;;;5097952;28;20460;-63
2023/05/06 08:23:12;;;;;;;3.83;3.53;;;21.60;99.90;;;;;;5096620;28;20514;-63
2023/05/06 08:25:40;;;;;;;4.27;3.73;;;21.60;99.90;;;;;;5097888;28;20510;-63
2023/05/06 08:28:19;;;;;;;3.50;3.20;;;22.00;99.90;;;;;;5097497;28;20435;-63
2023/05/06 08:30:47;;;;;;;3.33;3.03;;;22.20;99.90;;;;;;5097580;28;20507;-63
2023/05/06 08:33:16;;;;;;;3.50;3.20;;;22.60;99.90;;;;;;5098299;28;20464;-63
2023/05/06 08:35:43;;;;;;;2.53;2.33;;;22.60;99.90;;;;;;5098028;28;20892;-63
2023/05/06 08:38:10;;;;;;;3.13;2.83;;;22.40;99.90;;;;;;5098069;28;20873;-63
2023/05/06 08:40:43;;;;;;;4.07;3.50;;;22.70;99.90;;;;;;5097682;28;20555;-63
2023/05/06 08:43:15;;;;;;;3.60;3.30;;;22.70;99.90;;;;;;5097644;28;20882;-63
2023/05/06 08:45:48;;;;;;;3.10;2.57;;;22.70;99.90;;;;;;5097320;28;20769;-63
2023/05/06 08:48:19;;;;;;;3.07;2.87;;;22.60;99.90;;;;;;5090938;28;20581;-63
2023/05/06 08:50:49;;;;;;;4.67;2.60;;;23.00;99.90;;;;;;5098095;28;20537;-63
2023/05/06 08:53:16;;;;;;;3.73;2.97;;;22.90;99.90;;;;;;5097757;28;20435;-63
2023/05/06 08:55:45;;;;;;;4.93;2.90;;;23.20;99.90;;;;;;5097759;28;20464;-63
2023/05/06 08:58:16;;;;;;;4.60;3.07;;;23.20;99.90;;;;;;5097326;28;20518;-63
2023/05/06 09:00:44;;;;;;;4.30;2.80;;;23.10;99.90;;;;;;5094931;28;20469;-63
2023/05/06 09:03:11;;;;;;;3.30;3.00;;;23.20;99.90;;;;;;5096488;28;20674;-63
2023/05/06 09:05:42;;;;;;;3.37;2.90;;;23.40;99.90;;;;;;5076856;28;20467;-64
2023/05/06 09:08:10;;;;;;;2.87;2.57;;;23.40;99.90;;;;;;5086017;28;20464;-63
2023/05/06 09:10:43;;;;;;;2.70;2.47;;;23.20;99.90;;;;;;5095028;28;20765;-62
2023/05/06 09:13:12;;;;;;;2.97;2.30;;;23.20;99.90;;;;;;5094012;28;20560;-62
2023/05/06 09:15:41;;;;;;;2.60;2.30;;;23.50;99.90;;;;;;5093389;28;20439;-63
2023/05/06 09:18:08;;;;;;;2.73;2.30;;;23.70;99.90;;;;;;5082956;28;20968;-62
2023/05/06 09:20:35;;;;;;;2.93;2.40;;;23.90;99.90;;;;;;5094849;28;20472;-62
2023/05/06 09:23:04;;;;;;;4.50;2.30;;;24.20;99.90;;;;;;5096633;28;20456;-64
2023/05/06 09:25:32;;;;;;;3.63;2.47;;;24.20;99.90;;;;;;5092010;28;20799;-64
2023/05/06 09:28:04;;;;;;;3.13;2.33;;;24.40;99.90;;;;;;5095694;28;20467;-64
2023/05/06 09:30:31;;;;;;;2.67;2.43;;;24.50;99.90;;;;;;5096555;28;20559;-64
2023/05/06 09:33:03;;;;;;;4.13;1.93;;;24.20;99.90;;;;;;5095960;28;20903;-64
2023/05/06 09:35:36;;;;;;;4.90;2.73;;;24.20;99.90;;;;;;5099314;28;20921;-62
2023/05/06 09:38:05;;;;;;;2.63;2.43;;;24.20;99.90;;;;;;5095236;28;20466;-62
2023/05/06 09:40:32;;;;;;;2.63;2.43;;;24.50;99.90;;;;;;5096066;28;20944;-63
2023/05/06 09:43:00;;;;;;;2.50;2.30;;;24.40;99.90;;;;;;5094324;28;20491;-63
2023/05/06 09:45:28;;;;;;;2.93;2.20;;;24.30;99.90;;;;;;5097057;28;20452;-63
2023/05/06 09:47:55;;;;;;;3.10;2.90;;;24.40;99.90;;;;;;5096313;28;20459;-62
2023/05/06 09:50:24;;;;;;;2.40;1.90;;;24.60;99.90;;;;;;5095324;28;20578;-62
2023/05/06 09:52:51;;;;;;;2.50;2.30;;;24.60;99.90;;;;;;5099248;28;20455;-62
2023/05/06 09:55:25;;;;;;;2.40;2.20;;;24.80;99.90;;;;;;5099241;28;20539;-62
2023/05/06 09:57:52;;;;;;;2.50;2.30;;;24.70;99.90;;;;;;5098197;28;20879;-61
2023/05/06 10:00:26;;;;;;;4.20;2.80;;;24.90;99.90;;;;;;5080481;28;20543;-60
2023/05/06 10:02:55;;;;;;;5.17;2.37;;;24.50;99.90;;;;;;5079477;28;20466;-60
2023/05/06 10:05:24;;;;;;;1.90;1.70;;;24.90;99.90;;;;;;5080078;28;20501;-60
2023/05/06 10:07:53;;;;;;;3.03;2.20;;;25.30;99.90;;;;;;5079999;28;20461;-60
2023/05/06 10:10:24;;;;;;;2.83;2.20;;;25.70;99.90;;;;;;5080068;28;20516;-60
2023/05/06 10:12:52;;;;;;;3.07;2.27;;;26.10;99.90;;;;;;5062722;28;20461;-60
2023/05/06 10:15:19;;;;;;;2.30;2.10;;;26.20;99.90;;;;;;5080687;28;20488;-60
2023/05/06 10:17:47;;;;;;;2.43;2.10;;;26.40;99.90;;;;;;5080165;28;20547;-60
2023/05/06 10:20:16;;;;;;;2.60;2.40;;;26.90;99.90;;;;;;5088888;28;20471;-60
2023/05/06 10:23:00;;;;;;;3.20;2.50;;;26.40;99.90;;;;;;5090972;28;20559;-60
2023/05/06 10:25:34;;;;;;;2.60;2.40;;;25.50;99.90;;;;;;5081493;28;20829;-60
2023/05/06 10:28:02;;;;;;;2.50;2.30;;;24.00;99.90;;;;;;5098158;28;20909;-59
2023/05/06 10:30:32;;;;;;;2.80;2.20;;;24.00;99.90;;;;;;5099965;28;20500;-60
2023/05/06 10:33:04;;;;;;;2.57;2.37;;;24.40;99.90;;;;;;5100139;28;20567;-60
2023/05/06 10:35:53;;;;;;;2.87;2.37;;;24.30;99.90;;;;;;5097455;28;20938;-60
2023/05/06 10:38:25;;;;;;;4.20;2.60;;;24.10;99.90;;;;;;5100143;28;20798;-59
2023/05/06 10:40:54;;;;;;;3.23;2.10;;;24.30;99.90;;;;;;5099362;28;20488;-60
2023/05/06 10:43:28;;;;;;;3.57;2.37;;;24.50;99.90;;;;;;5096754;28;20525;-59
2023/05/06 10:46:07;;;;;;;2.13;1.90;;;23.80;99.90;;;;;;5095434;28;20529;-60
2023/05/06 10:48:35;;;;;;;2.57;2.30;;;23.40;99.90;;;;;;5077442;28;20514;-59
2023/05/06 10:51:22;;;;;;;2.50;2.30;;;23.20;99.90;;;;;;5078087;28;20933;-60
2023/05/06 10:54:02;;;;;;;2.70;2.30;;;22.90;99.90;;;;;;5087054;28;20500;-59
2023/05/06 10:56:33;;;;;;;3.00;2.70;;;23.00;99.90;;;;;;5099222;28;20461;-59
2023/05/06 10:59:07;;;;;;;2.77;2.50;;;23.40;99.90;;;;;;5099954;28;20467;-56
2023/05/06 11:01:35;;;;;;;2.37;2.17;;;24.10;99.90;;;;;;5099270;28;20459;-56
2023/05/06 11:04:09;;;;;;;4.57;3.10;;;24.90;99.90;;;;;;5099750;28;20471;-57
2023/05/06 11:06:42;;;;;;;2.60;2.40;;;25.30;99.90;;;;;;5098077;28;20464;-61
2023/05/06 11:09:16;;;;;;;3.40;3.00;;;25.30;99.90;;;;;;5098500;28;20558;-60
2023/05/06 11:11:51;;;;;;;2.90;2.33;;;24.90;99.90;;;;;;5098321;28;20923;-60
2023/05/06 11:14:29;;;;;;;3.47;2.50;;;24.30;99.90;;;;;;5096646;28;20474;-60
2023/05/06 11:16:57;;;;;;;2.77;2.57;;;23.70;99.90;;;;;;5099874;28;20809;-58
2023/05/06 11:19:26;;;;;;;2.50;2.30;;;23.10;99.90;;;;;;5096751;28;20462;-60
2023/05/06 11:21:56;;;;;;;3.60;2.60;;;23.30;99.90;;;;;;5099211;28;20476;-56
2023/05/06 11:24:25;;;;;;;2.83;2.50;;;24.30;99.90;;;;;;5075549;28;20756;-58
2023/05/06 11:26:54;;;;;;;2.90;1.90;;;25.20;99.90;;;;;;5074453;28;20456;-58
2023/05/06 11:29:22;;;;;;;2.90;2.47;;;25.30;99.90;;;;;;5081467;28;20486;-60
2023/05/06 11:31:50;;;;;;;2.27;1.87;;;25.20;99.90;;;;;;5074739;28;20588;-58
2023/05/06 11:34:28;;;;;;;2.43;2.10;;;25.90;99.90;;;;;;5094031;28;20468;-58
2023/05/06 11:37:03;;;;;;;2.57;2.30;;;25.80;99.90;;;;;;5096366;28;20456;-60
2023/05/06 11:39:32;;;;;;;2.37;2.17;;;25.20;99.90;;;;;;5096336;28;20905;-58
2023/05/06 11:42:04;;;;;;;2.30;2.10;;;24.70;99.90;;;;;;5118031;28;20456;-57
2023/05/06 11:44:33;;;;;;;2.27;2.07;;;24.30;99.90;;;;;;5117735;28;20556;-59
2023/05/06 11:47:01;;;;;;;4.10;2.03;;;23.80;99.90;;;;;;5108892;28;20465;-60
2023/05/06 11:49:29;;;;;;;3.73;2.70;;;24.10;99.90;;;;;;5090451;28;20559;-58
2023/05/06 11:51:57;;;;;;;2.67;2.20;;;24.30;99.90;;;;;;5098297;28;20492;-59
2023/05/06 11:54:26;;;;;;;2.23;2.00;;;24.40;99.90;;;;;;5098277;28;20460;-59
2023/05/06 11:56:55;;;;;;;1.90;1.70;;;24.40;99.90;;;;;;5092479;28;20457;-59
2023/05/06 11:59:32;;;;;;;2.30;2.10;;;24.00;99.90;;;;;;5088336;28;20465;-61
2023/05/06 12:02:01;;;;;;;2.60;2.40;;;23.90;99.90;;;;;;5080984;28;20457;-59
2023/05/06 12:04:36;;;;;;;2.33;2.03;;;24.10;99.90;;;;;;5094425;28;20465;-61
2023/05/06 12:07:06;;;;;;;1.80;1.67;;;24.50;99.90;;;;;;5096832;28;20441;-61
2023/05/06 12:09:35;;;;;;;1.80;1.53;;;24.90;99.90;;;;;;5096443;28;20832;-59
2023/05/06 12:12:04;;;;;;;2.87;2.10;;;25.40;99.90;;;;;;5097177;28;20499;-60
2023/05/06 12:14:33;;;;;;;2.40;2.17;;;26.20;99.90;;;;;;5089377;28;20460;-60
2023/05/06 12:17:00;;;;;;;1.80;1.70;;;26.40;99.90;;;;;;5097840;28;20492;-60
2023/05/06 12:19:29;;;;;;;2.23;2.00;;;26.30;99.90;;;;;;5097694;28;20492;-60
2023/05/06 12:21:56;;;;;;;2.50;2.30;;;25.80;99.90;;;;;;5097955;28;20457;-60
2023/05/06 12:24:30;;;;;;;2.43;2.07;;;25.60;99.90;;;;;;5098202;28;20563;-61
2023/05/06 12:26:57;;;;;;;2.53;2.27;;;25.60;99.90;;;;;;5114564;28;20665;-60
2023/05/06 12:29:24;;;;;;;2.20;1.87;;;25.90;99.90;;;;;;5117126;28;20438;-59
2023/05/06 12:32:07;;;;;;;3.20;2.53;;;26.50;99.90;;;;;;5116436;28;20542;-59
2023/05/06 12:34:39;;;;;;;4.03;2.30;;;27.40;99.90;;;;;;5115384;28;20891;-61
2023/05/06 12:37:07;;;;;;;2.40;2.20;;;27.70;99.90;;;;;;5107999;28;20450;-60
2023/05/06 12:39:35;;;;;;;2.87;2.13;;;27.90;99.90;;;;;;5095801;28;20466;-60
2023/05/06 12:42:02;;;;;;;3.57;2.10;;;27.20;99.90;;;;;;5095408;28;20672;-60
2023/05/06 12:44:32;;;;;;;3.33;2.30;;;26.80;99.90;;;;;;5095386;28;20466;-61
2023/05/06 12:47:02;;;;;;;3.60;2.40;;;26.80;99.90;;;;;;5095284;28;20468;-61